Time;durP1;ratioP1;P1;durP2;ratioP2;P2;SDS_P1;SDS_P2;PMS_P1;PMS_P2;Temp;Humidity;BMP_temperature;BMP_pressure;BME280_temperature;BME280_humidity;BME280_pressure;Samples;Min_cycle;Max_cycle;Signal;HPM_P1;HPM_P2
2021/05/16 00:02:22;;;;;;;11.02;9.00;;;461.20;2227.20;;;;;;5095023;28;20385;-73
2021/05/16 00:04:48;;;;;;;10.70;9.70;;;461.20;2227.20;;;;;;5095084;28;20031;-72
2021/05/16 00:07:14;;;;;;;11.00;9.40;;;461.20;2227.20;;;;;;5094974;28;20020;-72
2021/05/16 00:09:40;;;;;;;11.48;9.20;;;461.20;2227.20;;;;;;5095493;28;20084;-73
2021/05/16 00:12:08;;;;;;;10.55;9.32;;;461.20;2227.20;;;;;;5094503;28;20377;-73
2021/05/16 00:14:36;;;;;;;12.95;9.45;;;461.20;2201.60;;;;;;5094703;28;20036;-73
2021/05/16 00:17:03;;;;;;;12.23;9.05;;;461.20;2201.60;;;;;;5094906;28;20102;-73
2021/05/16 00:19:29;;;;;;;9.63;8.63;;;461.20;2201.60;;;;;;5094743;28;20031;-73
2021/05/16 00:21:55;;;;;;;9.75;8.75;;;461.20;2201.60;;;;;;5095808;28;20150;-72
2021/05/16 00:24:21;;;;;;;9.25;8.15;;;461.20;2227.20;;;;;;5094594;28;20028;-72
2021/05/16 00:26:47;;;;;;;11.27;9.65;;;461.20;2201.60;;;;;;5094641;28;20016;-72
2021/05/16 00:29:13;;;;;;;12.32;9.65;;;461.20;2201.60;;;;;;5094503;28;20507;-72
2021/05/16 00:31:38;;;;;;;10.68;9.70;;;461.20;2201.60;;;;;;5094833;28;20028;-73
2021/05/16 00:34:04;;;;;;;13.02;10.15;;;461.30;2201.60;;;;;;5094537;28;20078;-73
2021/05/16 00:36:30;;;;;;;15.07;10.07;;;461.30;2227.20;;;;;;5094385;28;20032;-73
2021/05/16 00:38:57;;;;;;;15.38;10.43;;;461.30;2227.20;;;;;;5094565;28;20039;-73
2021/05/16 00:41:23;;;;;;;12.98;10.38;;;461.30;2227.20;;;;;;5094340;28;20052;-73
2021/05/16 00:43:49;;;;;;;12.60;10.50;;;461.30;2227.20;;;;;;5094568;28;20085;-73
2021/05/16 00:46:15;;;;;;;13.75;11.40;;;461.20;2227.20;;;;;;5094199;28;20404;-73
2021/05/16 00:48:41;;;;;;;14.75;11.15;;;461.20;2227.20;;;;;;5094182;28;20028;-72
2021/05/16 00:51:10;;;;;;;14.48;11.38;;;461.20;2227.20;;;;;;5094141;28;20032;-72
2021/05/16 00:53:36;;;;;;;11.45;10.23;;;461.20;2227.20;;;;;;5094168;28;20024;-72
2021/05/16 00:56:03;;;;;;;14.48;11.32;;;461.20;2227.20;;;;;;5094086;28;20039;-73
2021/05/16 00:58:29;;;;;;;17.30;11.40;;;461.20;2227.20;;;;;;5093967;28;20036;-73
2021/05/16 01:00:55;;;;;;;14.85;12.18;;;461.20;2252.80;;;;;;5093878;28;20035;-73
2021/05/16 01:03:21;;;;;;;12.77;11.35;;;461.20;2252.80;;;;;;5093974;28;20471;-73
2021/05/16 01:05:47;;;;;;;13.45;12.05;;;461.20;2252.80;;;;;;5093832;28;20043;-73
2021/05/16 01:08:14;;;;;;;14.73;11.55;;;461.20;2252.80;;;;;;5094118;28;20036;-73
2021/05/16 01:10:41;;;;;;;12.75;11.05;;;461.20;2252.80;;;;;;5094104;28;20032;-73
2021/05/16 01:13:09;;;;;;;13.45;11.23;;;461.20;2252.80;;;;;;5092521;28;20126;-73
2021/05/16 01:15:37;;;;;;;14.85;10.75;;;461.20;2252.80;;;;;;5093541;28;20044;-73
2021/05/16 01:18:04;;;;;;;13.48;10.30;;;461.10;2252.80;;;;;;5093706;28;20028;-73
2021/05/16 01:20:33;;;;;;;13.13;11.60;;;461.10;2252.80;;;;;;5092446;28;20063;-73
2021/05/16 01:23:06;;;;;;;18.95;14.65;;;461.10;2278.40;;;;;;5092922;28;20415;-73
2021/05/16 01:25:35;;;;;;;19.83;13.40;;;461.10;2252.80;;;;;;5093809;28;20028;-73
2021/05/16 01:28:01;;;;;;;14.70;12.65;;;461.10;2252.80;;;;;;5093573;28;20055;-73
2021/05/16 01:30:28;;;;;;;15.10;13.50;;;461.10;2252.80;;;;;;5093578;28;20098;-73
2021/05/16 01:32:54;;;;;;;15.07;13.55;;;461.20;2227.20;;;;;;5093563;28;20024;-73
2021/05/16 01:35:21;;;;;;;16.13;14.43;;;461.20;2252.80;;;;;;5093530;28;20190;-72
2021/05/16 01:37:49;;;;;;;15.02;13.43;;;461.20;2252.80;;;;;;5093660;28;20441;-72
2021/05/16 01:40:16;;;;;;;13.05;11.80;;;461.20;2227.20;;;;;;5093413;28;20032;-72
2021/05/16 01:43:00;;;;;;;12.10;10.20;;;461.20;2227.20;;;;;;5093585;28;20107;-72
2021/05/16 01:45:27;;;;;;;;;;;461.20;2227.20;;;;;;5093919;28;20059;-72
2021/05/16 01:47:58;;;;;;;11.35;10.25;;;461.20;2252.80;;;;;;5093332;28;19908;-73
2021/05/16 01:50:28;;;;;;;13.95;11.38;;;461.20;2227.20;;;;;;5093685;28;20095;-73
2021/05/16 01:52:54;;;;;;;10.85;9.20;;;461.10;2252.80;;;;;;5093871;28;20020;-73
2021/05/16 01:55:20;;;;;;;12.77;10.23;;;461.20;2227.20;;;;;;5093653;28;20028;-72
2021/05/16 01:57:47;;;;;;;11.38;9.90;;;461.10;2252.80;;;;;;5093155;28;20028;-72
2021/05/16 02:00:21;;;;;;;11.25;10.10;;;461.10;2227.20;;;;;;5093275;28;20036;-72
2021/05/16 02:02:47;;;;;;;11.55;9.88;;;461.10;2227.20;;;;;;5093508;28;20020;-71
2021/05/16 02:05:14;;;;;;;11.30;9.23;;;461.10;2227.20;;;;;;5093459;28;20020;-72
2021/05/16 02:07:41;;;;;;;12.32;9.52;;;461.10;2227.20;;;;;;5093504;28;20107;-72
2021/05/16 02:10:07;;;;;;;12.65;9.93;;;461.10;2227.20;;;;;;5093360;28;20024;-72
2021/05/16 02:12:33;;;;;;;10.85;9.52;;;461.10;2227.20;;;;;;5093091;28;20111;-73
2021/05/16 02:14:59;;;;;;;17.13;9.82;;;461.10;2227.20;;;;;;5091733;28;20127;-73
2021/05/16 02:17:25;;;;;;;13.70;10.30;;;461.10;2252.80;;;;;;5092973;28;20023;-73
2021/05/16 02:19:51;;;;;;;11.65;10.18;;;461.00;2252.80;;;;;;5093010;28;20082;-73
2021/05/16 02:22:16;;;;;;;12.63;9.65;;;461.00;2252.80;;;;;;5091810;28;20055;-72
2021/05/16 02:24:44;;;;;;;13.70;9.68;;;461.00;2252.80;;;;;;5091788;28;20533;-72
2021/05/16 02:27:10;;;;;;;12.15;10.27;;;460.90;2252.80;;;;;;5093372;28;20031;-72
2021/05/16 02:29:37;;;;;;;11.20;9.95;;;460.90;2252.80;;;;;;5093046;28;20051;-73
2021/05/16 02:32:06;;;;;;;12.27;10.20;;;460.90;2252.80;;;;;;5093321;28;20058;-72
2021/05/16 02:34:33;;;;;;;11.73;9.60;;;460.90;2252.80;;;;;;5094933;28;20024;-72
2021/05/16 02:36:58;;;;;;;13.13;10.75;;;460.90;2252.80;;;;;;5097065;28;20028;-72
2021/05/16 02:39:24;;;;;;;12.27;9.98;;;460.90;2252.80;;;;;;5096922;28;20036;-72
2021/05/16 02:41:51;;;;;;;13.85;10.07;;;460.90;2278.40;;;;;;5096902;28;20024;-73
2021/05/16 02:44:18;;;;;;;18.63;10.18;;;460.90;2252.80;;;;;;5096643;28;20064;-72
2021/05/16 02:46:45;;;;;;;14.15;10.85;;;460.90;2252.80;;;;;;5096551;28;20020;-72
2021/05/16 02:49:11;;;;;;;14.07;11.68;;;460.90;2252.80;;;;;;5096520;28;20024;-73
2021/05/16 02:51:37;;;;;;;13.65;10.02;;;460.90;2252.80;;;;;;5096515;28;20036;-73
2021/05/16 02:54:05;;;;;;;12.75;10.18;;;460.90;2252.80;;;;;;5096481;28;20376;-72
2021/05/16 02:56:31;;;;;;;11.35;10.07;;;460.90;2252.80;;;;;;5096370;28;20110;-72
2021/05/16 02:58:58;;;;;;;14.88;13.18;;;460.90;2252.80;;;;;;5096795;28;20067;-72
2021/05/16 03:01:24;;;;;;;40.70;32.97;;;460.90;2252.80;;;;;;5096403;28;20032;-71
2021/05/16 03:03:50;;;;;;;36.15;31.02;;;460.90;2252.80;;;;;;5096612;28;20123;-72
2021/05/16 03:06:15;;;;;;;19.92;17.77;;;460.90;2252.80;;;;;;5096607;28;20024;-72
2021/05/16 03:08:42;;;;;;;13.07;11.65;;;460.90;2252.80;;;;;;5096188;28;20031;-71
2021/05/16 03:11:08;;;;;;;12.65;9.90;;;460.90;2252.80;;;;;;5096023;28;20035;-72
2021/05/16 03:13:33;;;;;;;11.02;9.60;;;460.90;2252.80;;;;;;5096004;28;20499;-72
2021/05/16 03:15:59;;;;;;;12.82;9.82;;;460.90;2278.40;;;;;;5096448;28;20036;-72
2021/05/16 03:18:26;;;;;;;16.15;9.82;;;460.90;2278.40;;;;;;5095822;28;20476;-72
2021/05/16 03:20:52;;;;;;;11.85;9.45;;;460.90;2278.40;;;;;;5095940;28;20024;-72
2021/05/16 03:23:18;;;;;;;10.90;9.63;;;460.90;2278.40;;;;;;5095823;28;20020;-73
2021/05/16 03:25:45;;;;;;;11.90;9.65;;;460.90;2278.40;;;;;;5095752;28;20028;-72
2021/05/16 03:28:11;;;;;;;11.20;9.20;;;460.90;2278.40;;;;;;5095800;28;20050;-72
2021/05/16 03:30:37;;;;;;;10.68;9.55;;;460.90;2278.40;;;;;;5095745;28;20472;-72
2021/05/16 03:33:03;;;;;;;12.23;9.02;;;460.90;2252.80;;;;;;5095603;28;20050;-72
2021/05/16 03:35:29;;;;;;;11.32;10.13;;;460.90;2252.80;;;;;;5095912;28;20375;-72
2021/05/16 03:37:55;;;;;;;13.38;8.75;;;460.90;2278.40;;;;;;5095818;28;20062;-72
2021/05/16 03:40:20;;;;;;;13.05;10.00;;;460.90;2278.40;;;;;;5095936;28;20473;-72
2021/05/16 03:42:47;;;;;;;11.27;10.02;;;460.80;2278.40;;;;;;5095475;28;20028;-72
2021/05/16 03:45:13;;;;;;;13.02;10.10;;;460.80;2278.40;;;;;;5094827;28;20567;-71
2021/05/16 03:47:40;;;;;;;12.18;9.85;;;460.90;2278.40;;;;;;5095655;28;20473;-73
2021/05/16 03:50:09;;;;;;;12.68;9.35;;;460.80;2278.40;;;;;;5095904;28;20032;-72
2021/05/16 03:52:35;;;;;;;13.88;9.93;;;460.80;2278.40;;;;;;5095624;28;20172;-72
2021/05/16 03:55:01;;;;;;;12.32;10.02;;;460.80;2304.00;;;;;;5095355;28;20031;-72
2021/05/16 03:57:27;;;;;;;12.20;10.98;;;436.10;2278.40;;;;;;5095047;28;20538;-71
2021/05/16 03:59:53;;;;;;;13.38;10.05;;;436.10;2278.40;;;;;;5095414;28;20028;-72
2021/05/16 04:02:19;;;;;;;12.90;9.63;;;436.10;2278.40;;;;;;5095170;28;20020;-72
2021/05/16 04:04:45;;;;;;;11.75;9.98;;;436.10;2278.40;;;;;;5095204;28;20503;-73
2021/05/16 04:07:11;;;;;;;14.95;9.55;;;436.10;2278.40;;;;;;5095067;28;20024;-72
2021/05/16 04:09:37;;;;;;;11.73;8.73;;;436.10;2278.40;;;;;;5095166;28;20031;-73
2021/05/16 04:12:04;;;;;;;10.10;9.10;;;436.10;2278.40;;;;;;5095043;28;20032;-73
2021/05/16 04:14:30;;;;;;;10.23;9.23;;;436.10;2278.40;;;;;;5094871;28;20085;-72
2021/05/16 04:16:56;;;;;;;12.32;8.45;;;436.00;2278.40;;;;;;5095101;28;20060;-72
2021/05/16 04:19:22;;;;;;;13.68;8.45;;;436.00;2278.40;;;;;;5094705;28;20042;-72
2021/05/16 04:21:48;;;;;;;8.98;8.05;;;436.00;2278.40;;;;;;5094884;28;20020;-72
2021/05/16 04:24:14;;;;;;;9.57;7.60;;;436.10;2278.40;;;;;;5095047;28;20024;-70
2021/05/16 04:26:40;;;;;;;9.50;7.22;;;436.10;2278.40;;;;;;5094759;28;20020;-73
2021/05/16 04:29:06;;;;;;;24.42;21.30;;;436.10;2278.40;;;;;;5094587;28;20027;-73
2021/05/16 04:31:33;;;;;;;38.20;31.50;;;436.10;2252.80;;;;;;5094576;28;20023;-73
2021/05/16 04:33:58;;;;;;;33.92;26.05;;;436.00;2252.80;;;;;;5094587;28;20024;-73
2021/05/16 04:36:25;;;;;;;14.50;10.90;;;436.00;2278.40;;;;;;5094746;28;20027;-72
2021/05/16 04:38:52;;;;;;;12.10;7.47;;;436.10;2252.80;;;;;;5095039;28;20043;-73
2021/05/16 04:41:19;;;;;;;9.02;6.93;;;436.10;2278.40;;;;;;5094434;28;20026;-71
2021/05/16 04:43:45;;;;;;;11.43;7.68;;;435.90;2278.40;;;;;;5094312;28;20059;-72
2021/05/16 04:46:12;;;;;;;13.10;7.53;;;436.00;2278.40;;;;;;5094291;28;20070;-72
2021/05/16 04:48:38;;;;;;;10.70;7.28;;;435.90;2278.40;;;;;;5094246;28;20115;-71
2021/05/16 04:51:04;;;;;;;11.23;7.72;;;435.90;2278.40;;;;;;5093123;28;20023;-71
2021/05/16 04:53:33;;;;;;;10.30;7.43;;;436.00;2252.80;;;;;;5094190;28;20024;-71
2021/05/16 04:56:00;;;;;;;9.13;7.22;;;436.00;2278.40;;;;;;5094155;28;20020;-72
2021/05/16 04:58:26;;;;;;;9.80;8.05;;;435.90;2252.80;;;;;;5093962;28;20536;-71
2021/05/16 05:00:52;;;;;;;10.45;7.05;;;435.90;2278.40;;;;;;5094084;28;20047;-72
2021/05/16 05:03:21;;;;;;;10.95;7.30;;;435.70;2304.00;;;;;;5094127;28;20062;-72
2021/05/16 05:05:47;;;;;;;10.73;7.20;;;;;;;;;;5094489;28;20024;-70
2021/05/16 05:08:14;;;;;;;11.63;7.30;;;;;;;;;;5093892;28;20472;-71
2021/05/16 05:10:40;;;;;;;9.57;5.78;;;;;;;;;;5093971;28;20480;-70
2021/05/16 05:13:06;;;;;;;6.25;4.53;;;435.90;2227.20;;;;;;5094584;28;20133;-70
2021/05/16 05:15:32;;;;;;;7.93;4.80;;;435.90;2227.20;;;;;;5093679;28;20130;-70
2021/05/16 05:17:58;;;;;;;7.55;4.25;;;435.70;2252.80;;;;;;5093721;28;20024;-70
2021/05/16 05:20:24;;;;;;;4.85;3.67;;;435.60;2252.80;;;;;;5093868;28;20035;-71
2021/05/16 05:22:52;;;;;;;10.10;4.40;;;435.40;2252.80;;;;;;5093819;28;20084;-71
2021/05/16 05:25:18;;;;;;;10.10;4.85;;;435.50;2278.40;;;;;;5094692;28;20031;-70
2021/05/16 05:27:44;;;;;;;7.35;4.80;;;435.40;2252.80;;;;;;5093656;28;20099;-70
2021/05/16 05:30:11;;;;;;;9.93;5.70;;;435.50;2278.40;;;;;;5093845;28;20384;-70
2021/05/16 05:32:37;;;;;;;9.10;3.92;;;435.50;2278.40;;;;;;5093692;28;20026;-70
2021/05/16 05:35:04;;;;;;;5.78;3.00;;;435.50;2201.60;;;;;;5094728;28;20032;-70
2021/05/16 05:37:30;;;;;;;5.95;3.85;;;435.40;2227.20;;;;;;5094294;28;20484;-71
2021/05/16 05:39:56;;;;;;;5.30;2.47;;;435.50;2227.20;;;;;;5094280;28;20057;-71
2021/05/16 05:42:24;;;;;;;3.72;2.20;;;435.50;2201.60;;;;;;5093535;28;20496;-70
2021/05/16 05:44:49;;;;;;;4.72;2.25;;;435.50;2176.00;;;;;;5093845;28;20051;-71
2021/05/16 05:47:16;;;;;;;3.40;2.03;;;435.50;2176.00;;;;;;5094042;28;20051;-71
2021/05/16 05:49:42;;;;;;;4.00;2.33;;;435.50;2201.60;;;;;;5093880;28;20035;-71
2021/05/16 05:52:08;;;;;;;6.50;2.50;;;435.50;2201.60;;;;;;5093409;28;20026;-70
2021/05/16 05:54:35;;;;;;;4.85;2.67;;;435.50;2201.60;;;;;;5093642;28;20068;-71
2021/05/16 05:57:01;;;;;;;3.33;2.05;;;435.50;2227.20;;;;;;5093972;28;20020;-70
2021/05/16 05:59:27;;;;;;;6.60;3.03;;;435.60;2201.60;;;;;;5093429;28;20388;-71
2021/05/16 06:01:53;;;;;;;5.40;2.80;;;435.70;2176.00;;;;;;5093903;28;20031;-71
2021/05/16 06:04:19;;;;;;;6.55;3.03;;;435.70;2176.00;;;;;;5093390;28;20020;-71
2021/05/16 06:06:45;;;;;;;5.63;2.65;;;435.80;2176.00;;;;;;5093623;28;20024;-71
2021/05/16 06:09:10;;;;;;;5.68;2.70;;;435.70;2201.60;;;;;;5093528;28;20438;-71
2021/05/16 06:11:36;;;;;;;5.88;2.85;;;435.70;2176.00;;;;;;5097339;28;20028;-71
2021/05/16 06:14:03;;;;;;;3.58;2.20;;;435.80;2201.60;;;;;;5097012;28;20040;-70
2021/05/16 06:16:29;;;;;;;3.25;2.50;;;435.70;2176.00;;;;;;5097513;28;20028;-71
2021/05/16 06:18:57;;;;;;;3.95;2.42;;;435.80;2176.00;;;;;;5097610;28;20521;-70
2021/05/16 06:21:23;;;;;;;4.97;2.15;;;435.80;2176.00;;;;;;5097086;28;20548;-71
2021/05/16 06:26:36;;;;;;;7.18;2.40;;;435.60;2176.00;;;;;;5097176;28;20031;-71
2021/05/16 06:29:06;;;;;;;3.95;2.20;;;435.60;2201.60;;;;;;5097196;28;20048;-71
2021/05/16 06:31:32;;;;;;;14.00;7.28;;;435.60;2201.60;;;;;;5096956;28;20098;-71
2021/05/16 06:33:59;;;;;;;18.25;8.85;;;435.70;2176.00;;;;;;5096951;28;20028;-71
2021/05/16 06:36:25;;;;;;;12.65;6.75;;;435.80;2176.00;;;;;;5096970;28;20027;-71
2021/05/16 06:38:51;;;;;;;22.00;11.68;;;435.50;2201.60;;;;;;5096929;28;20031;-71
2021/05/16 06:41:18;;;;;;;25.10;13.25;;;435.60;2227.20;;;;;;5097094;28;20078;-71
2021/05/16 06:43:45;;;;;;;13.50;8.07;;;435.60;2201.60;;;;;;5097718;28;20028;-71
2021/05/16 06:46:12;;;;;;;30.63;17.73;;;435.60;2201.60;;;;;;5096956;28;20392;-70
2021/05/16 06:48:38;;;;;;;11.73;5.75;;;435.70;2227.20;;;;;;5097070;28;20032;-70
2021/05/16 06:51:05;;;;;;;5.43;2.83;;;435.80;2201.60;;;;;;5096807;28;20028;-71
2021/05/16 06:53:31;;;;;;;6.97;3.42;;;435.70;2201.60;;;;;;5097043;28;20031;-70
2021/05/16 06:55:58;;;;;;;13.05;7.00;;;435.70;2227.20;;;;;;5096823;28;20031;-70
2021/05/16 06:58:23;;;;;;;6.10;5.22;;;435.80;2227.20;;;;;;5096383;28;20034;-71
2021/05/16 07:00:50;;;;;;;10.30;6.88;;;435.80;2252.80;;;;;;5096535;28;20095;-71
2021/05/16 07:03:16;;;;;;;5.75;3.97;;;435.70;2252.80;;;;;;5096363;28;20144;-72
2021/05/16 07:05:41;;;;;;;6.60;3.45;;;435.80;2252.80;;;;;;5096317;28;20028;-71
2021/05/16 07:08:07;;;;;;;4.10;3.08;;;435.80;2252.80;;;;;;5096319;28;20086;-71
2021/05/16 07:10:33;;;;;;;4.15;3.13;;;435.90;2227.20;;;;;;5096045;28;20032;-71
2021/05/16 07:12:59;;;;;;;6.68;3.03;;;436.00;2227.20;;;;;;5096031;28;20400;-71
2021/05/16 07:15:28;;;;;;;4.90;3.10;;;436.10;2252.80;;;;;;5096284;28;20040;-71
2021/05/16 07:17:54;;;;;;;5.10;3.00;;;460.80;2252.80;;;;;;5095938;28;20035;-71
2021/05/16 07:20:20;;;;;;;5.50;2.83;;;460.80;2252.80;;;;;;5094978;28;20032;-71
2021/05/16 07:22:46;;;;;;;5.00;3.25;;;460.90;2252.80;;;;;;5096272;28;20024;-72
2021/05/16 07:25:13;;;;;;;6.85;3.53;;;460.90;2252.80;;;;;;5094595;28;20046;-71
2021/05/16 07:27:39;;;;;;;5.43;3.42;;;460.90;2252.80;;;;;;5096425;28;20028;-72
2021/05/16 07:30:06;;;;;;;6.47;3.60;;;461.00;2252.80;;;;;;5095722;28;20054;-73
2021/05/16 07:32:32;;;;;;;4.68;3.38;;;461.00;2252.80;;;;;;5095781;28;20020;-72
2021/05/16 07:34:58;;;;;;;6.35;4.28;;;461.10;2252.80;;;;;;5095601;28;20032;-73
2021/05/16 07:37:24;;;;;;;7.07;3.85;;;461.20;2252.80;;;;;;5095497;28;20029;-74
2021/05/16 07:39:50;;;;;;;5.35;3.83;;;461.20;2252.80;;;;;;5095309;28;20039;-74
2021/05/16 07:42:16;;;;;;;5.15;3.40;;;461.20;2227.20;;;;;;5095680;28;20031;-74
2021/05/16 07:44:42;;;;;;;8.07;4.32;;;461.30;2252.80;;;;;;5095297;28;20389;-74
2021/05/16 07:47:11;;;;;;;4.65;3.40;;;461.20;2227.20;;;;;;5095438;28;20034;-74
2021/05/16 07:49:37;;;;;;;4.65;3.25;;;461.20;2201.60;;;;;;5095532;28;20032;-73
2021/05/16 07:52:03;;;;;;;7.95;3.10;;;461.20;2201.60;;;;;;5094254;28;20112;-70
2021/05/16 07:54:29;;;;;;;4.60;3.33;;;461.20;2201.60;;;;;;5095192;28;20031;-74
2021/05/16 07:56:57;;;;;;;7.35;3.95;;;461.20;2227.20;;;;;;5095755;28;20020;-74
2021/05/16 07:59:23;;;;;;;5.80;3.30;;;461.20;2201.60;;;;;;5095482;28;20040;-74
2021/05/16 08:01:49;;;;;;;4.60;3.17;;;461.20;2201.60;;;;;;5095150;28;20099;-74
2021/05/16 08:04:15;;;;;;;4.95;3.30;;;461.20;2227.20;;;;;;5094675;28;20116;-73
2021/05/16 08:06:41;;;;;;;7.10;4.40;;;461.10;2227.20;;;;;;5094969;28;20495;-72
2021/05/16 08:09:07;;;;;;;5.60;3.50;;;461.20;2227.20;;;;;;5094598;28;20499;-73
2021/05/16 08:11:33;;;;;;;5.72;3.75;;;461.20;2227.20;;;;;;5093996;28;20030;-73
2021/05/16 08:13:59;;;;;;;5.00;3.40;;;461.20;2201.60;;;;;;5094193;28;20416;-73
2021/05/16 08:16:25;;;;;;;6.28;3.72;;;461.20;2176.00;;;;;;5094535;28;20031;-73
2021/05/16 08:18:52;;;;;;;5.72;4.13;;;461.20;2201.60;;;;;;5094915;28;20073;-70
2021/05/16 08:21:20;;;;;;;7.97;3.72;;;461.20;2201.60;;;;;;5093206;28;20044;-71
2021/05/16 08:23:45;;;;;;;6.78;4.10;;;461.20;2176.00;;;;;;5092831;28;20028;-71
2021/05/16 08:26:11;;;;;;;7.40;4.82;;;461.20;2201.60;;;;;;5092755;28;20081;-69
2021/05/16 08:28:37;;;;;;;6.70;4.30;;;461.30;2227.20;;;;;;5093023;28;20032;-72
2021/05/16 08:31:03;;;;;;;5.57;3.90;;;461.30;2201.60;;;;;;5092709;28;20028;-71
2021/05/16 08:33:29;;;;;;;7.40;3.80;;;461.30;2176.00;;;;;;5093732;28;20028;-74
2021/05/16 08:35:55;;;;;;;6.00;3.85;;;461.30;2176.00;;;;;;5093327;28;20024;-72
2021/05/16 08:38:21;;;;;;;9.40;3.58;;;461.40;2176.00;;;;;;5092466;28;20040;-72
2021/05/16 08:40:47;;;;;;;4.70;2.92;;;461.40;2176.00;;;;;;5091388;28;20028;-72
2021/05/16 08:43:13;;;;;;;3.90;2.92;;;461.40;2099.20;;;;;;5093305;28;20034;-72
2021/05/16 08:45:41;;;;;;;4.47;2.90;;;461.50;2073.60;;;;;;5094748;28;20024;-72
2021/05/16 08:48:07;;;;;;;5.93;2.88;;;461.50;2048.00;;;;;;5094230;28;20020;-72
2021/05/16 08:50:33;;;;;;;4.93;2.83;;;461.50;2073.60;;;;;;5094182;28;20048;-73
2021/05/16 08:52:59;;;;;;;6.28;3.30;;;461.50;2099.20;;;;;;5090242;28;20032;-69
2021/05/16 08:55:27;;;;;;;4.75;2.78;;;461.50;2073.60;;;;;;5093023;28;20035;-72
2021/05/16 08:57:53;;;;;;;4.20;3.00;;;461.50;2073.60;;;;;;5092353;28;20035;-71
2021/05/16 09:00:21;;;;;;;5.65;3.33;;;461.50;2099.20;;;;;;5091115;28;20032;-72
2021/05/16 09:03:07;;;;;;;5.60;3.65;;;461.50;2048.00;;;;;;5092342;28;20103;-72
2021/05/16 09:05:49;;;;;;;5.22;3.33;;;461.60;2048.00;;;;;;5092905;28;20024;-71
2021/05/16 09:08:21;;;;;;;5.22;3.13;;;461.60;1996.80;;;;;;5090962;28;20062;-72
2021/05/16 09:10:59;;;;;;;4.30;2.85;;;461.70;2022.40;;;;;;5092525;28;20016;-71
2021/05/16 09:13:26;;;;;;;6.57;3.08;;;461.70;2022.40;;;;;;5092059;28;20089;-72
2021/05/16 09:16:12;;;;;;;6.38;2.95;;;461.70;1996.80;;;;;;5092718;28;20549;-72
2021/05/16 09:18:42;;;;;;;5.65;3.03;;;486.40;2022.40;;;;;;5092323;28;20081;-71
2021/05/16 09:21:31;;;;;;;4.05;3.10;;;486.40;2048.00;;;;;;5091445;28;20435;-72
2021/05/16 09:24:13;;;;;;;6.00;3.15;;;486.40;1996.80;;;;;;5092588;28;20101;-73
2021/05/16 09:26:50;;;;;;;4.90;3.15;;;486.50;2022.40;;;;;;5092351;28;20050;-72
2021/05/16 09:29:33;;;;;;;4.75;3.25;;;486.60;2048.00;;;;;;5091641;28;20024;-72
2021/05/16 09:32:01;;;;;;;5.85;3.22;;;486.70;2022.40;;;;;;5092182;28;20058;-70
2021/05/16 09:34:28;;;;;;;4.38;3.28;;;486.60;1996.80;;;;;;5090535;28;20052;-70
2021/05/16 09:36:55;;;;;;;5.40;3.40;;;486.70;2022.40;;;;;;5090739;28;20020;-72
2021/05/16 09:39:27;;;;;;;5.07;3.20;;;486.60;1971.20;;;;;;5091082;28;20024;-70
2021/05/16 09:42:00;;;;;;;5.60;2.90;;;486.60;1996.80;;;;;;5091928;28;20047;-72
2021/05/16 09:44:49;;;;;;;4.38;3.25;;;486.60;1996.80;;;;;;5091931;28;20099;-73
2021/05/16 09:47:30;;;;;;;3.25;2.65;;;486.60;1996.80;;;;;;5092618;28;20039;-71
2021/05/16 09:50:01;;;;;;;7.30;3.20;;;486.60;1971.20;;;;;;5091883;28;20028;-70
2021/05/16 09:52:36;;;;;;;6.68;3.25;;;486.60;1971.20;;;;;;5092003;28;20114;-71
2021/05/16 09:55:05;;;;;;;6.50;2.60;;;486.60;1971.20;;;;;;5091391;28;20074;-72
2021/05/16 09:57:36;;;;;;;5.18;3.20;;;486.60;1971.20;;;;;;5088093;28;20085;-72
2021/05/16 10:00:05;;;;;;;3.95;2.65;;;486.60;1945.60;;;;;;5090627;28;20043;-72
2021/05/16 10:02:31;;;;;;;8.20;3.10;;;486.60;1996.80;;;;;;5088405;28;20059;-73
2021/05/16 10:05:00;;;;;;;4.50;2.67;;;486.60;1971.20;;;;;;5090567;28;20019;-72
2021/05/16 10:07:26;;;;;;;4.72;2.95;;;486.50;1996.80;;;;;;5090470;28;20021;-72
2021/05/16 10:09:54;;;;;;;4.28;3.15;;;486.70;1945.60;;;;;;5090334;28;20063;-71
2021/05/16 10:12:22;;;;;;;5.78;3.30;;;486.70;1996.80;;;;;;5090517;28;20016;-72
2021/05/16 10:15:13;;;;;;;5.78;3.00;;;486.50;1971.20;;;;;;5090341;28;20117;-71
2021/05/16 10:17:42;;;;;;;4.20;2.47;;;486.60;1971.20;;;;;;5078735;28;20511;-72
2021/05/16 10:20:16;;;;;;;6.25;2.50;;;486.50;1945.60;;;;;;5088971;28;20158;-71
2021/05/16 10:22:56;;;;;;;8.65;3.13;;;486.50;1920.00;;;;;;5087951;28;20031;-72
2021/05/16 10:25:47;;;;;;;5.63;2.33;;;486.50;1971.20;;;;;;5087891;28;20031;-71
2021/05/16 10:28:18;;;;;;;7.60;2.08;;;486.50;1945.60;;;;;;5081398;28;20032;-70
2021/05/16 10:31:03;;;;;;;5.18;2.60;;;486.50;1971.20;;;;;;5087540;28;20016;-71
2021/05/16 10:33:30;;;;;;;5.20;2.08;;;486.50;1945.60;;;;;;5088663;28;20019;-72
2021/05/16 10:35:56;;;;;;;7.55;2.25;;;486.60;1945.60;;;;;;5090064;28;20031;-70
2021/05/16 10:38:36;;;;;;;4.72;1.77;;;486.60;1920.00;;;;;;5090664;28;20025;-72
2021/05/16 10:41:28;;;;;;;2.60;1.80;;;486.70;1971.20;;;;;;5089832;28;20023;-73
2021/05/16 10:44:28;;;;;;;8.52;2.55;;;486.80;1894.40;;;;;;5086421;28;20508;-71
2021/05/16 10:46:54;;;;;;;4.75;1.77;;;486.80;1894.40;;;;;;5088875;28;20028;-73
2021/05/16 10:49:24;;;;;;;3.55;1.75;;;486.80;1843.20;;;;;;5089899;28;20036;-69
2021/05/16 10:51:50;;;;;;;5.95;2.10;;;486.90;1792.00;;;;;;5088692;28;20366;-70
2021/05/16 10:54:30;;;;;;;5.43;2.17;;;487.00;1868.80;;;;;;5090016;28;20028;-72
2021/05/16 10:57:13;;;;;;;6.03;1.70;;;487.00;1920.00;;;;;;5092600;28;20362;-71
2021/05/16 10:59:40;;;;;;;5.07;2.10;;;487.10;1868.80;;;;;;5093221;28;20114;-71
2021/05/16 11:02:06;;;;;;;5.97;2.28;;;487.10;1868.80;;;;;;5093735;28;20028;-72
2021/05/16 11:04:53;;;;;;;5.20;2.45;;;487.10;1868.80;;;;;;5093477;28;20016;-72
2021/05/16 11:07:35;;;;;;;6.00;1.83;;;487.10;1868.80;;;;;;5093040;28;20024;-73
2021/05/16 11:10:22;;;;;;;4.85;1.30;;;487.20;1817.60;;;;;;5093188;28;20016;-73
2021/05/16 11:12:49;;;;;;;4.32;1.50;;;487.20;1766.40;;;;;;5091691;28;20043;-71
2021/05/16 11:15:25;;;;;;;4.20;1.40;;;487.20;1792.00;;;;;;5093282;28;20080;-73
2021/05/16 11:17:51;;;;;;;7.47;1.80;;;487.20;1715.20;;;;;;5091827;28;20024;-71
2021/05/16 11:20:20;;;;;;;6.40;1.70;;;487.30;1792.00;;;;;;5093213;28;20031;-71
2021/05/16 11:22:46;;;;;;;3.40;1.25;;;487.30;1715.20;;;;;;5093264;28;20024;-70
2021/05/16 11:25:22;;;;;;;4.45;1.42;;;487.20;1766.40;;;;;;5092899;28;20024;-71
2021/05/16 11:27:48;;;;;;;4.43;2.05;;;487.20;1766.40;;;;;;5091312;28;20020;-71
2021/05/16 11:30:15;;;;;;;4.47;2.45;;;487.20;1766.40;;;;;;5092628;28;20027;-72
2021/05/16 11:32:41;;;;;;;5.63;2.15;;;487.00;1766.40;;;;;;5092754;28;20128;-73
2021/05/16 11:35:07;;;;;;;5.03;1.77;;;487.30;1766.40;;;;;;5093476;28;20024;-73
2021/05/16 11:37:34;;;;;;;5.03;2.65;;;487.20;1766.40;;;;;;5093774;28;20099;-70
2021/05/16 11:40:21;;;;;;;3.17;1.45;;;487.20;1817.60;;;;;;5093847;28;20034;-72
2021/05/16 11:42:48;;;;;;;3.88;1.52;;;487.30;1766.40;;;;;;5094633;28;20031;-72
2021/05/16 11:45:16;;;;;;;5.28;1.83;;;487.30;1766.40;;;;;;5093945;28;20028;-73
2021/05/16 11:47:43;;;;;;;7.32;2.00;;;487.30;1766.40;;;;;;5093917;28;20035;-70
2021/05/16 11:50:13;;;;;;;3.20;1.80;;;487.30;1766.40;;;;;;5094030;28;20024;-72
2021/05/16 11:52:39;;;;;;;3.85;1.70;;;512.10;1766.40;;;;;;5093282;28;20365;-71
2021/05/16 11:55:11;;;;;;;5.32;1.88;;;512.20;1792.00;;;;;;5093201;28;20024;-72
2021/05/16 11:57:42;;;;;;;5.25;1.63;;;512.10;1715.20;;;;;;5092007;28;20044;-72
2021/05/16 12:00:10;;;;;;;5.65;1.85;;;512.10;1740.80;;;;;;5091086;28;20043;-72
2021/05/16 12:02:37;;;;;;;4.88;1.90;;;512.20;1715.20;;;;;;5090565;28;20042;-71
2021/05/16 12:05:04;;;;;;;6.35;1.80;;;512.20;1766.40;;;;;;5090910;28;20047;-71
2021/05/16 12:07:31;;;;;;;4.85;1.70;;;512.50;1792.00;;;;;;5090294;28;20135;-72
2021/05/16 12:09:57;;;;;;;5.50;1.65;;;512.60;1740.80;;;;;;5091084;28;20016;-71
2021/05/16 12:12:26;;;;;;;4.70;2.25;;;512.60;1740.80;;;;;;5091953;28;20357;-72
2021/05/16 12:14:57;;;;;;;12.02;2.30;;;512.50;1689.60;;;;;;5089495;28;20048;-71
2021/05/16 12:17:32;;;;;;;11.07;2.83;;;512.40;1715.20;;;;;;5091887;28;20349;-72
2021/05/16 12:19:59;;;;;;;4.95;1.90;;;512.30;1689.60;;;;;;5090404;28;20390;-75
2021/05/16 12:22:37;;;;;;;4.82;2.25;;;512.30;1689.60;;;;;;5092402;28;20068;-72